Time;durP1;ratioP1;P1;durP2;ratioP2;P2;SDS_P1;SDS_P2;PMS_P1;PMS_P2;Temp;Humidity;BMP_temperature;BMP_pressure;BME280_temperature;BME280_humidity;BME280_pressure;Samples;Min_cycle;Max_cycle;Signal;HPM_P1;HPM_P2
2023/03/23 00:01:12;;;;;;;26.60;15.50;;;10.70;99.90;;;;;;5061298;28;20633;-62
2023/03/23 00:03:39;;;;;;;27.58;16.15;;;10.60;99.90;;;;;;5065893;28;20063;-62
2023/03/23 00:06:06;;;;;;;24.75;16.25;;;10.70;99.90;;;;;;5052977;28;20454;-62
2023/03/23 00:08:45;;;;;;;27.27;15.90;;;10.70;99.90;;;;;;5066706;28;20059;-63
2023/03/23 00:11:19;;;;;;;27.38;15.93;;;10.70;99.90;;;;;;5066203;28;20189;-62
2023/03/23 00:13:45;;;;;;;;;;;10.70;99.90;;;;;;5051230;28;20052;-63
2023/03/23 00:16:18;;;;;;;24.48;14.50;;;10.70;99.90;;;;;;5048118;28;19920;-64
2023/03/23 00:18:53;;;;;;;22.33;14.50;;;10.70;99.90;;;;;;5066688;28;20496;-64
2023/03/23 00:21:25;;;;;;;20.55;13.80;;;10.80;99.90;;;;;;5050347;28;20048;-64
2023/03/23 00:23:53;;;;;;;24.17;13.85;;;10.90;99.90;;;;;;5050302;28;20044;-61
2023/03/23 00:26:19;;;;;;;21.15;13.90;;;10.90;99.90;;;;;;5074520;28;20169;-62
2023/03/23 00:28:46;;;;;;;21.90;14.38;;;10.90;99.90;;;;;;5087004;28;20138;-62
2023/03/23 00:31:13;;;;;;;22.95;13.70;;;10.90;99.90;;;;;;5067075;28;20882;-63
2023/03/23 00:33:40;;;;;;;20.02;12.02;;;11.00;99.90;;;;;;5050291;28;20052;-62
2023/03/23 00:36:11;;;;;;;19.85;12.15;;;11.00;99.90;;;;;;5066528;28;20040;-60
2023/03/23 00:38:38;;;;;;;20.67;12.98;;;11.00;99.90;;;;;;5066110;28;20045;-61
2023/03/23 00:41:04;;;;;;;22.90;13.82;;;11.00;99.90;;;;;;5079469;28;20047;-60
2023/03/23 00:43:31;;;;;;;20.17;13.02;;;11.00;99.90;;;;;;5086836;28;20040;-62
2023/03/23 00:46:00;;;;;;;19.45;13.18;;;10.90;99.90;;;;;;5084672;28;20132;-61
2023/03/23 00:48:28;;;;;;;24.15;12.45;;;10.90;99.90;;;;;;5068396;28;20177;-62
2023/03/23 00:50:54;;;;;;;20.27;11.13;;;10.90;99.90;;;;;;5067561;28;20044;-62
2023/03/23 00:53:20;;;;;;;22.75;12.20;;;10.90;99.90;;;;;;5049685;28;20046;-63
2023/03/23 00:55:47;;;;;;;17.67;11.38;;;11.00;99.90;;;;;;5048933;28;20420;-58
2023/03/23 00:58:14;;;;;;;22.88;12.45;;;11.00;99.90;;;;;;5065876;28;20274;-60
2023/03/23 01:00:40;;;;;;;19.00;12.32;;;11.00;99.90;;;;;;5066287;28;20206;-61
2023/03/23 01:03:07;;;;;;;25.85;13.57;;;11.00;99.90;;;;;;5066136;28;20115;-62
2023/03/23 01:05:37;;;;;;;24.15;14.48;;;10.90;99.90;;;;;;5067202;28;20109;-62
2023/03/23 01:08:04;;;;;;;26.67;14.40;;;10.90;99.90;;;;;;5049295;28;20044;-61
2023/03/23 01:10:32;;;;;;;28.35;15.73;;;10.80;99.90;;;;;;5067026;28;20190;-59
2023/03/23 01:13:01;;;;;;;25.25;13.35;;;10.60;99.90;;;;;;5065942;28;20047;-60
2023/03/23 01:15:28;;;;;;;22.38;13.85;;;10.50;99.90;;;;;;5062661;28;20044;-62
2023/03/23 01:17:54;;;;;;;20.35;11.48;;;10.50;99.90;;;;;;5067302;28;20053;-61
2023/03/23 01:20:20;;;;;;;18.63;10.50;;;10.50;99.90;;;;;;5067103;28;20044;-62
2023/03/23 01:22:46;;;;;;;14.95;8.75;;;10.50;99.90;;;;;;5065393;28;20059;-61
2023/03/23 01:25:13;;;;;;;16.63;8.35;;;10.50;99.90;;;;;;5055641;28;20037;-61
2023/03/23 01:27:40;;;;;;;13.18;8.88;;;10.60;99.90;;;;;;5049649;28;20075;-60
2023/03/23 01:30:07;;;;;;;16.30;8.82;;;10.60;99.90;;;;;;5065235;28;20151;-61
2023/03/23 01:32:34;;;;;;;21.17;9.82;;;10.70;99.90;;;;;;5073876;28;20055;-63
2023/03/23 01:35:00;;;;;;;17.77;9.23;;;10.70;99.90;;;;;;5048623;28;20075;-61
2023/03/23 01:37:26;;;;;;;19.42;11.15;;;10.80;99.90;;;;;;5049123;28;20040;-61
2023/03/23 01:39:56;;;;;;;16.83;9.20;;;10.80;99.90;;;;;;5047964;28;20166;-59
2023/03/23 01:42:23;;;;;;;17.17;8.93;;;10.80;99.90;;;;;;5065422;28;20097;-60
2023/03/23 01:44:49;;;;;;;21.02;9.30;;;10.70;99.90;;;;;;5063273;28;20036;-60
2023/03/23 01:47:16;;;;;;;19.70;9.45;;;10.70;99.90;;;;;;5073607;28;20064;-61
2023/03/23 01:49:46;;;;;;;19.05;8.90;;;10.70;99.90;;;;;;5068336;28;20109;-62
2023/03/23 01:52:17;;;;;;;17.30;8.07;;;10.70;99.90;;;;;;5069543;28;20315;-61
2023/03/23 01:54:44;;;;;;;20.02;8.90;;;10.70;99.90;;;;;;5064366;28;21046;-61
2023/03/23 01:57:15;;;;;;;14.60;7.30;;;10.70;99.90;;;;;;5065059;28;20076;-61
2023/03/23 01:59:44;;;;;;;18.23;6.90;;;10.70;99.90;;;;;;5046129;28;20071;-61
2023/03/23 02:02:12;;;;;;;15.68;6.65;;;10.70;99.90;;;;;;5048317;28;20060;-63
2023/03/23 02:04:41;;;;;;;15.60;6.75;;;10.80;99.90;;;;;;5064357;28;20505;-61
2023/03/23 02:07:08;;;;;;;15.48;7.00;;;10.80;99.90;;;;;;5048348;28;20495;-60
2023/03/23 02:09:34;;;;;;;13.77;6.20;;;10.80;99.90;;;;;;5047247;28;20047;-61
2023/03/23 02:12:00;;;;;;;14.05;6.63;;;10.80;99.90;;;;;;5064579;28;20044;-62
2023/03/23 02:14:28;;;;;;;16.90;7.25;;;10.80;99.90;;;;;;5064498;28;20044;-61
2023/03/23 02:17:12;;;;;;;16.67;6.22;;;10.80;99.90;;;;;;5064475;28;20639;-63
2023/03/23 02:20:17;;;;;;;11.05;5.90;;;10.80;99.90;;;;;;5064034;28;20090;-62
2023/03/23 02:23:02;;;;;;;;;;;10.80;99.90;;;;;;5084149;28;20054;-62
2023/03/23 02:25:37;;;;;;;10.98;5.53;;;10.80;99.90;;;;;;5058726;28;19924;-62
2023/03/23 02:28:23;;;;;;;11.13;5.53;;;10.80;99.90;;;;;;5067794;28;20152;-63
2023/03/23 02:31:19;;;;;;;12.43;5.10;;;10.80;99.90;;;;;;5065637;28;20035;-63
2023/03/23 02:34:40;;;;;;;15.18;5.72;;;10.90;99.90;;;;;;5047680;28;20123;-64
2023/03/23 02:37:13;;;;;;;13.73;5.40;;;10.80;99.90;;;;;;5025080;28;20084;-62
2023/03/23 02:39:50;;;;;;;14.10;5.25;;;10.80;99.90;;;;;;5079668;28;20131;-63
2023/03/23 02:42:23;;;;;;;10.85;4.50;;;10.80;99.90;;;;;;5067752;28;20036;-60
2023/03/23 02:44:52;;;;;;;11.38;4.63;;;10.80;99.90;;;;;;5065448;28;20044;-61
2023/03/23 02:47:22;;;;;;;12.43;4.55;;;10.80;99.90;;;;;;5066455;28;20040;-60
2023/03/23 02:49:51;;;;;;;10.88;4.70;;;10.90;99.90;;;;;;5047105;28;20040;-61
2023/03/23 02:52:25;;;;;;;12.27;5.00;;;10.90;99.90;;;;;;5047124;28;20261;-63
2023/03/23 02:54:52;;;;;;;13.50;5.40;;;10.80;99.90;;;;;;5046793;28;20152;-62
2023/03/23 02:57:19;;;;;;;13.82;5.35;;;10.80;99.90;;;;;;5063960;28;20067;-59
2023/03/23 02:59:46;;;;;;;12.55;4.65;;;10.80;99.90;;;;;;5063100;28;20535;-59
2023/03/23 03:02:17;;;;;;;14.20;4.75;;;10.90;99.90;;;;;;5063930;28;20385;-60
2023/03/23 03:04:54;;;;;;;11.02;4.55;;;10.80;99.90;;;;;;5046975;28;20040;-63
2023/03/23 03:07:57;;;;;;;10.73;4.55;;;10.90;99.90;;;;;;5063821;28;20041;-60
2023/03/23 03:10:46;;;;;;;15.45;4.80;;;10.90;99.90;;;;;;5046404;28;20133;-63
2023/03/23 03:13:23;;;;;;;13.75;4.90;;;10.90;99.90;;;;;;5063675;28;20049;-61
2023/03/23 03:16:08;;;;;;;13.52;4.97;;;10.90;99.90;;;;;;5061863;28;20048;-62
2023/03/23 03:18:42;;;;;;;11.80;4.93;;;10.90;99.90;;;;;;5063015;28;20049;-62
2023/03/23 03:21:12;;;;;;;14.52;4.55;;;10.90;99.90;;;;;;5065052;28;20035;-62
2023/03/23 03:23:41;;;;;;;14.10;4.50;;;10.90;99.90;;;;;;5083951;28;20497;-62
2023/03/23 03:26:09;;;;;;;9.82;3.95;;;11.00;99.90;;;;;;5081929;28;20770;-62
2023/03/23 03:28:36;;;;;;;10.65;4.45;;;10.90;99.90;;;;;;5066639;28;20043;-62
2023/03/23 03:31:04;;;;;;;10.40;3.97;;;10.90;99.90;;;;;;5065591;28;20239;-61
2023/03/23 03:33:33;;;;;;;8.55;3.90;;;10.90;99.90;;;;;;5048176;28;20062;-64
2023/03/23 03:36:03;;;;;;;8.57;3.75;;;10.90;99.90;;;;;;5046393;28;20116;-63
2023/03/23 03:38:28;;;;;;;9.77;3.78;;;10.90;99.90;;;;;;5065071;28;20052;-63
2023/03/23 03:40:55;;;;;;;9.73;3.97;;;10.90;99.90;;;;;;5067066;28;20321;-61
2023/03/23 03:43:21;;;;;;;10.38;3.90;;;10.90;99.90;;;;;;5068857;28;20040;-63
2023/03/23 03:45:47;;;;;;;8.93;4.00;;;10.90;99.90;;;;;;5065772;28;20029;-61
2023/03/23 03:48:13;;;;;;;10.43;4.07;;;10.90;99.90;;;;;;5067028;28;20044;-63
2023/03/23 03:50:38;;;;;;;11.65;4.38;;;10.90;99.90;;;;;;5084306;28;20071;-62
2023/03/23 03:53:05;;;;;;;12.82;4.75;;;10.90;99.90;;;;;;5054519;28;20119;-60
2023/03/23 03:55:35;;;;;;;10.95;4.72;;;10.80;99.90;;;;;;5077876;28;20072;-60
2023/03/23 03:58:02;;;;;;;11.60;5.07;;;10.80;99.90;;;;;;5068474;28;20570;-62
2023/03/23 04:00:28;;;;;;;10.85;5.18;;;10.80;99.90;;;;;;5048799;28;20041;-61
2023/03/23 04:02:54;;;;;;;11.93;5.20;;;10.70;99.90;;;;;;5067066;28;20608;-60
2023/03/23 04:05:24;;;;;;;10.90;5.22;;;10.70;99.90;;;;;;5067297;28;20044;-59
2023/03/23 04:07:51;;;;;;;10.95;4.60;;;10.60;99.90;;;;;;5050866;28;20155;-60
2023/03/23 04:10:21;;;;;;;13.43;5.57;;;10.70;99.90;;;;;;5068250;28;20036;-61
2023/03/23 04:12:48;;;;;;;11.13;5.35;;;10.60;99.90;;;;;;5068254;28;20043;-61
2023/03/23 04:15:14;;;;;;;13.18;6.00;;;10.60;99.90;;;;;;5083835;28;20044;-60
2023/03/23 04:17:40;;;;;;;14.35;5.60;;;10.50;99.90;;;;;;5078873;28;20050;-61
2023/03/23 04:20:12;;;;;;;12.05;5.57;;;10.50;99.90;;;;;;5086475;28;20044;-64
2023/03/23 04:22:38;;;;;;;11.98;5.68;;;10.50;99.90;;;;;;5082338;28;20596;-62
2023/03/23 04:25:06;;;;;;;13.10;5.63;;;10.50;99.90;;;;;;5066221;28;20123;-62
2023/03/23 04:27:32;;;;;;;14.75;6.57;;;10.60;99.90;;;;;;5066174;28;20028;-63
2023/03/23 04:29:58;;;;;;;10.68;5.55;;;10.60;99.90;;;;;;5048090;28;20094;-62
2023/03/23 04:32:28;;;;;;;15.13;5.22;;;10.60;99.90;;;;;;5068022;28;20040;-63
2023/03/23 04:35:03;;;;;;;15.40;5.38;;;10.80;99.90;;;;;;5049799;28;20044;-61
2023/03/23 04:37:29;;;;;;;14.38;5.97;;;10.80;99.90;;;;;;5066384;28;20040;-60
2023/03/23 04:40:01;;;;;;;14.35;5.97;;;10.80;99.90;;;;;;5049468;28;20090;-61
2023/03/23 04:42:29;;;;;;;14.13;6.15;;;10.90;99.90;;;;;;5066827;28;20040;-62
2023/03/23 04:44:56;;;;;;;11.20;5.70;;;10.80;99.90;;;;;;5065915;28;20834;-61
2023/03/23 04:47:23;;;;;;;13.82;6.28;;;10.80;99.90;;;;;;5075048;28;20032;-61
2023/03/23 04:49:50;;;;;;;12.45;5.75;;;10.80;99.90;;;;;;5085790;28;20044;-63
2023/03/23 04:52:16;;;;;;;14.10;5.80;;;10.80;99.90;;;;;;5071189;28;20061;-62
2023/03/23 04:54:42;;;;;;;18.08;6.15;;;10.80;99.90;;;;;;5049921;28;20625;-60
2023/03/23 04:57:08;;;;;;;16.70;7.10;;;10.80;99.90;;;;;;5069851;28;20048;-61
2023/03/23 04:59:34;;;;;;;14.68;6.40;;;10.70;99.90;;;;;;5084456;28;20120;-61
2023/03/23 05:02:00;;;;;;;14.40;5.88;;;10.70;99.90;;;;;;5079695;28;20047;-62
2023/03/23 05:04:26;;;;;;;9.05;5.22;;;10.60;99.90;;;;;;5078677;28;20040;-62
2023/03/23 05:06:52;;;;;;;12.45;4.57;;;10.50;99.90;;;;;;5074250;28;20081;-61
2023/03/23 05:09:18;;;;;;;13.73;3.55;;;10.50;99.90;;;;;;5065896;28;20044;-61
2023/03/23 05:11:43;;;;;;;12.63;3.22;;;10.40;99.90;;;;;;5049092;28;20051;-63
2023/03/23 05:14:09;;;;;;;8.38;2.85;;;10.40;99.90;;;;;;5066542;28;20400;-62
2023/03/23 05:16:37;;;;;;;11.82;3.35;;;10.40;99.90;;;;;;5048807;28;20174;-66
2023/03/23 05:19:04;;;;;;;13.35;3.45;;;10.30;99.90;;;;;;5048952;28;20032;-61
2023/03/23 05:21:31;;;;;;;11.30;2.63;;;10.30;99.90;;;;;;5065563;28;20036;-61
2023/03/23 05:24:00;;;;;;;12.25;3.22;;;10.30;99.90;;;;;;5065130;28;20040;-61
2023/03/23 05:26:30;;;;;;;12.25;3.20;;;10.30;99.90;;;;;;5064511;28;20049;-61
2023/03/23 05:28:56;;;;;;;18.20;3.13;;;10.20;99.90;;;;;;5065101;28;20788;-62
2023/03/23 05:31:22;;;;;;;11.65;2.85;;;10.20;99.90;;;;;;5065714;28;20271;-61
2023/03/23 05:33:48;;;;;;;16.52;3.22;;;10.10;99.90;;;;;;5048595;28;20059;-63
2023/03/23 05:36:14;;;;;;;15.57;3.20;;;10.10;99.90;;;;;;5048673;28;20032;-62
2023/03/23 05:38:45;;;;;;;19.02;3.95;;;10.10;99.90;;;;;;5065529;28;20044;-62
2023/03/23 05:41:11;;;;;;;16.45;3.22;;;10.10;99.90;;;;;;5048297;28;20301;-64
2023/03/23 05:43:38;;;;;;;11.00;2.75;;;10.10;99.90;;;;;;5065434;28;20051;-63
2023/03/23 05:46:04;;;;;;;8.90;2.42;;;10.20;99.90;;;;;;5046947;28;20431;-60
2023/03/23 05:48:29;;;;;;;15.18;2.85;;;10.20;99.90;;;;;;5065454;28;20044;-60
2023/03/23 05:50:56;;;;;;;17.77;3.20;;;10.20;99.90;;;;;;5068096;28;20047;-62
2023/03/23 05:53:23;;;;;;;12.63;3.08;;;10.20;99.90;;;;;;5085649;28;20051;-63
2023/03/23 05:55:48;;;;;;;15.57;2.50;;;10.30;99.90;;;;;;5083736;28;20059;-61
2023/03/23 05:58:14;;;;;;;14.98;2.97;;;10.20;99.90;;;;;;5068202;28;20125;-62
2023/03/23 06:00:40;;;;;;;13.15;3.53;;;10.30;99.90;;;;;;5083433;28;20048;-62
2023/03/23 06:03:06;;;;;;;18.38;4.15;;;10.30;99.90;;;;;;5069377;28;20075;-60
2023/03/23 06:05:32;;;;;;;14.75;3.08;;;10.30;99.90;;;;;;5064884;28;20391;-63
2023/03/23 06:07:58;;;;;;;16.58;3.95;;;10.30;99.90;;;;;;5048211;28;20392;-61
2023/03/23 06:10:25;;;;;;;18.30;3.70;;;10.30;99.90;;;;;;5051004;28;20033;-61
2023/03/23 06:12:51;;;;;;;13.80;3.47;;;10.30;99.90;;;;;;5064952;28;20076;-62
2023/03/23 06:15:17;;;;;;;16.92;3.15;;;10.40;99.90;;;;;;5046384;28;20040;-61
2023/03/23 06:17:43;;;;;;;20.65;3.10;;;10.40;99.90;;;;;;5047720;28;20585;-64
2023/03/23 06:20:10;;;;;;;16.15;3.25;;;10.40;99.90;;;;;;5064638;28;20048;-63
2023/03/23 06:22:37;;;;;;;16.52;3.97;;;10.40;99.90;;;;;;5054993;28;20043;-61
2023/03/23 06:25:05;;;;;;;20.27;3.28;;;10.50;99.90;;;;;;5062378;28;20106;-60
2023/03/23 06:27:31;;;;;;;21.92;3.72;;;10.50;99.90;;;;;;5067664;28;20552;-63
2023/03/23 06:29:56;;;;;;;18.08;3.03;;;10.50;99.90;;;;;;5082935;28;20395;-62
2023/03/23 06:32:24;;;;;;;21.65;4.00;;;10.60;99.90;;;;;;5058821;28;20503;-63
2023/03/23 06:34:50;;;;;;;18.88;3.70;;;10.60;99.90;;;;;;5064717;28;20561;-63
2023/03/23 06:37:16;;;;;;;22.88;3.45;;;10.60;99.90;;;;;;5065444;28;20048;-62
2023/03/23 06:39:42;;;;;;;16.88;3.28;;;10.70;99.90;;;;;;5047396;28;20044;-61
2023/03/23 06:42:12;;;;;;;19.75;3.55;;;10.70;99.90;;;;;;5048140;28;20559;-62
2023/03/23 06:44:38;;;;;;;16.10;3.47;;;10.70;99.90;;;;;;5072507;28;20077;-65
2023/03/23 06:47:04;;;;;;;18.38;4.25;;;10.70;99.90;;;;;;5065767;28;20031;-62
2023/03/23 06:49:31;;;;;;;16.00;3.88;;;10.70;99.90;;;;;;5085595;28;20048;-63
2023/03/23 06:51:57;;;;;;;19.67;4.22;;;10.70;99.90;;;;;;5055036;28;20044;-62
2023/03/23 06:54:23;;;;;;;25.17;3.97;;;10.70;99.90;;;;;;5063894;28;20039;-63
2023/03/23 06:56:49;;;;;;;23.83;3.53;;;10.60;99.90;;;;;;5077421;28;20052;-62
2023/03/23 06:59:15;;;;;;;16.10;4.10;;;10.70;99.90;;;;;;5066066;28;20083;-61
2023/03/23 07:01:41;;;;;;;14.63;3.47;;;10.70;99.90;;;;;;5065635;28;20517;-64
2023/03/23 07:04:06;;;;;;;20.00;4.53;;;10.80;99.90;;;;;;5067415;28;20127;-64
2023/03/23 07:06:32;;;;;;;21.08;5.13;;;10.80;99.90;;;;;;5064022;28;20496;-61
2023/03/23 07:08:58;;;;;;;19.65;4.70;;;10.80;99.90;;;;;;5066840;28;20056;-60
2023/03/23 07:11:24;;;;;;;21.25;3.72;;;10.80;99.90;;;;;;5065418;28;20206;-64
2023/03/23 07:13:50;;;;;;;23.75;3.83;;;10.80;99.90;;;;;;5083161;28;20561;-62
2023/03/23 07:16:17;;;;;;;21.45;4.22;;;10.80;99.90;;;;;;5065092;28;20075;-62
2023/03/23 07:18:43;;;;;;;22.88;4.70;;;10.70;99.90;;;;;;5047095;28;20075;-63
2023/03/23 07:21:10;;;;;;;28.85;4.55;;;10.70;99.90;;;;;;5046773;28;20044;-62
2023/03/23 07:23:35;;;;;;;24.20;4.72;;;10.70;99.90;;;;;;5063999;28;20543;-62
2023/03/23 07:26:03;;;;;;;22.33;5.15;;;10.80;99.90;;;;;;5046683;28;20303;-65
2023/03/23 07:28:29;;;;;;;26.48;5.30;;;10.80;99.90;;;;;;5046617;28;20046;-64
2023/03/23 07:30:55;;;;;;;23.40;4.60;;;10.80;99.90;;;;;;5062120;28;20045;-63
2023/03/23 07:33:22;;;;;;;27.98;5.35;;;10.80;99.90;;;;;;5063792;28;20063;-61
2023/03/23 07:35:47;;;;;;;26.27;4.25;;;10.80;99.90;;;;;;5063718;28;20047;-67
2023/03/23 07:38:14;;;;;;;33.95;5.20;;;10.90;99.90;;;;;;5063067;28;20715;-61
2023/03/23 07:40:40;;;;;;;26.92;5.50;;;11.20;99.90;;;;;;5064833;28;20043;-64
2023/03/23 07:43:07;;;;;;;24.83;5.22;;;11.50;99.90;;;;;;5063569;28;20123;-66
2023/03/23 07:45:33;;;;;;;26.38;5.28;;;11.50;99.90;;;;;;5044753;28;20076;-64
2023/03/23 07:47:59;;;;;;;22.70;4.70;;;11.90;99.90;;;;;;5064580;28;20495;-62
2023/03/23 07:50:26;;;;;;;30.90;4.68;;;12.00;99.90;;;;;;5063308;28;20045;-62
2023/03/23 07:52:57;;;;;;;20.50;5.10;;;11.90;99.90;;;;;;5047047;28;20063;-61
2023/03/23 07:55:24;;;;;;;26.05;4.78;;;11.90;99.90;;;;;;5079586;28;20332;-63
2023/03/23 07:57:51;;;;;;;23.77;4.13;;;11.80;99.90;;;;;;5063288;28;20049;-67
2023/03/23 08:00:23;;;;;;;28.38;4.38;;;11.90;99.90;;;;;;5061595;28;20040;-63
2023/03/23 08:02:55;;;;;;;24.75;4.75;;;12.10;99.90;;;;;;5074107;28;20056;-63
2023/03/23 08:05:21;;;;;;;29.38;5.05;;;12.20;99.90;;;;;;5083385;28;20123;-64
2023/03/23 08:07:48;;;;;;;23.42;3.75;;;12.20;99.90;;;;;;5047455;28;20381;-66
2023/03/23 08:10:15;;;;;;;25.13;4.53;;;12.20;99.90;;;;;;5063093;28;20044;-61
2023/03/23 08:12:43;;;;;;;25.50;5.55;;;12.10;99.90;;;;;;5046301;28;20086;-65
2023/03/23 08:15:14;;;;;;;29.30;5.97;;;12.00;99.90;;;;;;5044925;28;20583;-61
2023/03/23 08:17:40;;;;;;;29.17;5.47;;;11.90;99.90;;;;;;5062737;28;20050;-64
2023/03/23 08:20:10;;;;;;;28.30;4.90;;;11.90;99.90;;;;;;5046268;28;20391;-62
2023/03/23 08:22:38;;;;;;;21.77;4.32;;;11.80;99.90;;;;;;5046836;28;20039;-64
2023/03/23 08:25:06;;;;;;;21.35;4.60;;;11.70;99.90;;;;;;5049023;28;20025;-62
2023/03/23 08:27:32;;;;;;;25.08;5.07;;;11.70;99.90;;;;;;5050064;28;20404;-66
2023/03/23 08:29:58;;;;;;;26.35;4.07;;;11.80;99.90;;;;;;5048365;28;20098;-61
2023/03/23 08:32:24;;;;;;;18.10;4.70;;;11.80;99.90;;;;;;5057488;28;20119;-62
2023/03/23 08:34:50;;;;;;;28.17;5.05;;;11.90;99.90;;;;;;5088468;28;20040;-63
2023/03/23 08:37:16;;;;;;;29.80;4.72;;;11.90;99.90;;;;;;5068262;28;20534;-62
2023/03/23 08:39:45;;;;;;;33.95;5.53;;;12.00;99.90;;;;;;5084683;28;20487;-62
2023/03/23 08:42:11;;;;;;;28.80;4.95;;;12.00;99.90;;;;;;5049584;28;20102;-66
2023/03/23 08:44:37;;;;;;;32.63;5.32;;;11.90;99.90;;;;;;5048373;28;20106;-67
2023/03/23 08:47:04;;;;;;;39.20;5.15;;;11.80;99.90;;;;;;5065490;28;20032;-62
2023/03/23 08:49:32;;;;;;;25.50;4.88;;;11.70;99.90;;;;;;5050183;28;20520;-63
2023/03/23 08:51:58;;;;;;;27.88;5.15;;;11.70;99.90;;;;;;5049712;28;20338;-63
2023/03/23 08:54:25;;;;;;;26.83;5.38;;;11.70;99.90;;;;;;5065681;28;20049;-66
2023/03/23 08:56:50;;;;;;;33.03;5.00;;;11.80;99.90;;;;;;5050091;28;20113;-66
2023/03/23 08:59:16;;;;;;;33.65;5.68;;;12.00;99.90;;;;;;5048525;28;20036;-64
2023/03/23 09:01:42;;;;;;;30.75;5.85;;;12.40;99.90;;;;;;5053848;28;20040;-65
2023/03/23 09:04:08;;;;;;;29.10;5.00;;;12.40;99.90;;;;;;5049409;28;20131;-63
2023/03/23 09:06:36;;;;;;;30.92;4.90;;;12.60;99.90;;;;;;5066398;28;20041;-63
2023/03/23 09:09:06;;;;;;;29.02;5.75;;;12.70;99.90;;;;;;5066222;28;20671;-61
2023/03/23 09:11:36;;;;;;;28.35;6.03;;;12.70;99.90;;;;;;5067102;28;20403;-63
2023/03/23 09:14:04;;;;;;;21.85;4.72;;;12.60;99.90;;;;;;5049773;28;20109;-64
2023/03/23 09:16:30;;;;;;;31.63;6.20;;;12.60;99.90;;;;;;5064284;28;20082;-65
2023/03/23 09:18:56;;;;;;;32.40;5.50;;;12.80;99.90;;;;;;5065741;28;20045;-68
2023/03/23 09:21:23;;;;;;;24.88;5.03;;;13.00;99.90;;;;;;5049307;28;20127;-61
2023/03/23 09:23:49;;;;;;;29.92;5.63;;;13.00;99.90;;;;;;5049487;28;20036;-63
2023/03/23 09:26:15;;;;;;;32.60;6.30;;;13.30;99.90;;;;;;5072859;28;20096;-63
2023/03/23 09:28:41;;;;;;;29.42;5.28;;;13.50;99.90;;;;;;5069006;28;20050;-63
2023/03/23 09:31:06;;;;;;;36.25;6.13;;;13.70;99.90;;;;;;5060207;28;20392;-63
2023/03/23 09:33:36;;;;;;;32.08;5.68;;;13.40;99.90;;;;;;5048634;28;20044;-63
2023/03/23 09:36:02;;;;;;;32.92;5.05;;;13.10;99.90;;;;;;5066175;28;20044;-66
2023/03/23 09:38:31;;;;;;;24.85;5.30;;;13.00;99.90;;;;;;5048411;28;20412;-65
2023/03/23 09:41:44;;;;;;;20.23;5.55;;;13.00;99.90;;;;;;5065088;28;20447;-64
2023/03/23 09:44:46;;;;;;;30.50;5.43;;;13.10;99.90;;;;;;5033476;28;20511;-64
2023/03/23 09:47:19;;;;;;;25.73;5.63;;;12.90;99.90;;;;;;5065140;28;20039;-65
2023/03/23 09:50:04;;;;;;;31.13;6.13;;;12.40;99.90;;;;;;5048848;28;20178;-65
2023/03/23 09:52:43;;;;;;;23.35;5.10;;;12.30;99.90;;;;;;5065669;28;20059;-70
2023/03/23 09:55:16;;;;;;;26.55;4.95;;;12.30;99.90;;;;;;5064680;28;20060;-64
2023/03/23 09:57:57;;;;;;;28.30;5.30;;;12.30;99.90;;;;;;5064709;28;20088;-66
2023/03/23 10:00:31;;;;;;;29.10;5.47;;;12.30;99.90;;;;;;5063187;28;20147;-66
2023/03/23 10:03:02;;;;;;;27.85;4.93;;;12.20;99.90;;;;;;5065319;28;20051;-66
2023/03/23 10:05:34;;;;;;;27.33;4.85;;;12.10;99.90;;;;;;5048166;28;20072;-68
2023/03/23 10:08:03;;;;;;;22.83;4.63;;;12.20;99.90;;;;;;5084518;28;20043;-62
2023/03/23 10:10:39;;;;;;;31.02;4.28;;;12.20;99.90;;;;;;5060486;28;20396;-66
2023/03/23 10:13:33;;;;;;;20.38;4.63;;;12.40;99.90;;;;;;5048464;28;20626;-68
2023/03/23 10:16:00;;;;;;;19.63;4.05;;;12.50;99.90;;;;;;5043836;28;20092;-67
2023/03/23 10:18:48;;;;;;;28.30;5.30;;;13.00;99.90;;;;;;5059607;28;20398;-66
2023/03/23 10:21:19;;;;;;;33.08;5.00;;;13.70;99.90;;;;;;5048193;28;20048;-66
2023/03/23 10:23:59;;;;;;;24.63;5.15;;;13.60;99.90;;;;;;5048079;28;20079;-64
2023/03/23 10:26:28;;;;;;;26.05;4.80;;;13.50;99.90;;;;;;5047771;28;20490;-64
2023/03/23 10:29:18;;;;;;;23.27;4.07;;;13.50;99.90;;;;;;5047652;28;20052;-65
2023/03/23 10:31:58;;;;;;;22.90;4.68;;;13.30;99.90;;;;;;5064929;28;20171;-67
2023/03/23 10:34:54;;;;;;;26.25;4.63;;;13.30;99.90;;;;;;5067717;28;20083;-67
2023/03/23 10:37:25;;;;;;;24.15;4.80;;;13.20;99.90;;;;;;5048568;28;20506;-67
2023/03/23 10:39:58;;;;;;;21.73;4.35;;;13.00;99.90;;;;;;5047471;28;20523;-67
2023/03/23 10:42:31;;;;;;;23.45;4.22;;;12.80;99.90;;;;;;5064604;28;20036;-64
2023/03/23 10:45:00;;;;;;;19.88;3.90;;;12.60;99.90;;;;;;5058868;28;20032;-68
2023/03/23 10:47:27;;;;;;;24.75;4.78;;;12.40;99.90;;;;;;5076101;28;20090;-67
2023/03/23 10:49:58;;;;;;;21.92;5.28;;;12.70;99.90;;;;;;5047586;28;20083;-66
2023/03/23 10:52:42;;;;;;;22.42;4.00;;;12.80;99.90;;;;;;5064685;28;20745;-67
2023/03/23 10:55:12;;;;;;;24.30;4.72;;;12.90;99.90;;;;;;5063634;28;20127;-64
2023/03/23 10:57:40;;;;;;;18.63;4.00;;;12.70;99.90;;;;;;5047212;28;20051;-67
2023/03/23 11:00:19;;;;;;;23.65;4.15;;;12.70;99.90;;;;;;5062173;28;20547;-68
2023/03/23 11:02:58;;;;;;;18.10;4.15;;;12.80;99.90;;;;;;5064045;28;20796;-68
2023/03/23 11:05:32;;;;;;;25.85;5.35;;;12.80;99.90;;;;;;5047635;28;20537;-64
2023/03/23 11:07:59;;;;;;;23.63;4.60;;;12.80;99.90;;;;;;5066068;28;20043;-66
2023/03/23 11:10:39;;;;;;;29.52;4.95;;;12.90;99.90;;;;;;5077518;28;20040;-68
2023/03/23 11:13:10;;;;;;;16.83;3.50;;;12.90;99.90;;;;;;5047539;28;20093;-63
2023/03/23 11:15:41;;;;;;;18.60;3.65;;;12.80;99.90;;;;;;5062064;28;20040;-67
2023/03/23 11:18:20;;;;;;;15.73;3.53;;;12.90;99.90;;;;;;5046954;28;20744;-67
2023/03/23 11:20:50;;;;;;;17.15;3.15;;;13.30;98.70;;;;;;5064560;28;20100;-68
2023/03/23 11:23:22;;;;;;;17.15;3.60;;;13.60;97.80;;;;;;5083952;28;20093;-64
2023/03/23 11:26:11;;;;;;;16.63;3.00;;;14.00;98.40;;;;;;5077841;28;20035;-65
2023/03/23 11:28:43;;;;;;;13.82;2.72;;;14.40;96.10;;;;;;5073222;28;20056;-66
2023/03/23 11:31:09;;;;;;;14.25;3.50;;;14.70;95.70;;;;;;5051517;28;20135;-68
2023/03/23 11:33:40;;;;;;;12.70;3.13;;;14.80;94.70;;;;;;5063940;28;20530;-68
2023/03/23 11:36:08;;;;;;;18.63;3.20;;;15.00;94.70;;;;;;5046700;28;20052;-64
2023/03/23 11:38:34;;;;;;;16.17;3.92;;;15.60;95.70;;;;;;5063181;28;20048;-66
2023/03/23 11:41:01;;;;;;;14.70;3.40;;;16.00;93.30;;;;;;5063211;28;20044;-64
2023/03/23 11:43:27;;;;;;;17.13;3.30;;;16.30;90.70;;;;;;5047540;28;20044;-64
2023/03/23 11:46:05;;;;;;;14.10;3.35;;;16.10;88.50;;;;;;5044740;28;20040;-68
2023/03/23 11:48:40;;;;;;;15.38;3.47;;;15.80;87.00;;;;;;5075798;28;20040;-68
2023/03/23 11:51:41;;;;;;;15.65;3.10;;;15.50;90.30;;;;;;5051191;28;20386;-67
2023/03/23 11:54:31;;;;;;;13.80;2.92;;;15.00;92.10;;;;;;5049424;28;20088;-66
2023/03/23 11:56:57;;;;;;;12.98;2.80;;;15.00;92.70;;;;;;5062169;28;20084;-66
2023/03/23 11:59:36;;;;;;;20.92;3.83;;;15.00;92.00;;;;;;5047246;28;20045;-65
2023/03/23 12:02:17;;;;;;;17.25;3.28;;;15.20;92.60;;;;;;5070329;28;20151;-68
2023/03/23 12:04:49;;;;;;;12.40;2.75;;;14.90;90.80;;;;;;5087589;28;20036;-67
2023/03/23 12:07:15;;;;;;;13.85;2.97;;;14.50;92.30;;;;;;5056474;28;20032;-65
2023/03/23 12:10:21;;;;;;;15.38;2.85;;;14.30;93.50;;;;;;5050373;28;20558;-66
2023/03/23 12:13:24;;;;;;;18.80;3.45;;;14.80;94.40;;;;;;5050871;28;20032;-70
2023/03/23 12:16:17;;;;;;;14.32;2.60;;;14.80;91.60;;;;;;5048453;28;20050;-67
2023/03/23 12:19:11;;;;;;;14.88;3.33;;;14.90;90.70;;;;;;5050172;28;20131;-67
2023/03/23 12:21:45;;;;;;;11.63;2.63;;;15.20;90.30;;;;;;5051020;28;20044;-66
2023/03/23 12:24:18;;;;;;;14.77;2.90;;;15.30;90.10;;;;;;5050495;28;20068;-68
2023/03/23 12:27:25;;;;;;;17.45;3.40;;;15.50;88.90;;;;;;5070410;28;20051;-66
2023/03/23 12:30:14;;;;;;;13.40;2.70;;;15.70;86.60;;;;;;5064227;28;20059;-69
2023/03/23 12:32:51;;;;;;;14.60;2.25;;;15.50;87.40;;;;;;5055399;28;20479;-66
2023/03/23 12:35:52;;;;;;;11.27;2.72;;;15.20;83.20;;;;;;5066915;28;20670;-65
2023/03/23 12:38:46;;;;;;;16.27;2.92;;;15.40;84.80;;;;;;5049891;28;20044;-65
2023/03/23 12:41:22;;;;;;;15.70;2.88;;;15.40;82.20;;;;;;5068195;28;20090;-64
2023/03/23 12:43:54;;;;;;;17.20;2.70;;;15.60;84.00;;;;;;5087303;28;20036;-66
2023/03/23 12:46:24;;;;;;;13.50;3.20;;;16.00;81.60;;;;;;5066200;28;20123;-66
2023/03/23 12:49:13;;;;;;;12.05;2.70;;;15.80;80.60;;;;;;5084618;28;20697;-66
2023/03/23 12:52:01;;;;;;;12.70;2.85;;;15.60;79.00;;;;;;5072910;28;20051;-67
2023/03/23 12:54:33;;;;;;;18.83;2.70;;;15.70;81.30;;;;;;5069269;28;20048;-64